sensor_id;sensor_type;location;lat;lon;timestamp;P1;durP1;ratioP1;P2;durP2;ratioP2
11817;SDS011;5966;52.402;5.322;2023-04-01T00:02:12;13.10;;;5.20;;
11817;SDS011;5966;52.402;5.322;2023-04-01T00:04:51;13.23;;;4.30;;
11817;SDS011;5966;52.402;5.322;2023-04-01T00:07:22;11.60;;;4.33;;
11817;SDS011;5966;52.402;5.322;2023-04-01T00:10:07;11.03;;;4.63;;
11817;SDS011;5966;52.402;5.322;2023-04-01T00:12:43;16.73;;;5.63;;
11817;SDS011;5966;52.402;5.322;2023-04-01T00:15:12;10.43;;;4.87;;
11817;SDS011;5966;52.402;5.322;2023-04-01T00:17:40;14.10;;;5.47;;
11817;SDS011;5966;52.402;5.322;2023-04-01T00:20:09;13.77;;;5.07;;
11817;SDS011;5966;52.402;5.322;2023-04-01T00:22:38;12.10;;;5.20;;
11817;SDS011;5966;52.402;5.322;2023-04-01T00:25:06;10.90;;;4.33;;
11817;SDS011;5966;52.402;5.322;2023-04-01T00:27:35;12.23;;;5.17;;
11817;SDS011;5966;52.402;5.322;2023-04-01T00:30:03;13.90;;;5.23;;
11817;SDS011;5966;52.402;5.322;2023-04-01T00:32:33;14.93;;;4.73;;
11817;SDS011;5966;52.402;5.322;2023-04-01T00:35:02;12.73;;;4.90;;
11817;SDS011;5966;52.402;5.322;2023-04-01T00:37:30;11.77;;;4.70;;
11817;SDS011;5966;52.402;5.322;2023-04-01T00:40:23;13.73;;;5.23;;
11817;SDS011;5966;52.402;5.322;2023-04-01T00:42:53;14.50;;;5.50;;
11817;SDS011;5966;52.402;5.322;2023-04-01T00:45:26;14.17;;;5.07;;
11817;SDS011;5966;52.402;5.322;2023-04-01T00:47:59;11.30;;;4.90;;
11817;SDS011;5966;52.402;5.322;2023-04-01T00:50:31;10.57;;;5.27;;
11817;SDS011;5966;52.402;5.322;2023-04-01T00:53:01;14.07;;;5.57;;
11817;SDS011;5966;52.402;5.322;2023-04-01T00:55:31;14.20;;;5.70;;
11817;SDS011;5966;52.402;5.322;2023-04-01T00:58:01;7.87;;;4.47;;
11817;SDS011;5966;52.402;5.322;2023-04-01T01:00:34;10.37;;;4.80;;
11817;SDS011;5966;52.402;5.322;2023-04-01T01:03:04;7.13;;;4.40;;
11817;SDS011;5966;52.402;5.322;2023-04-01T01:05:36;11.00;;;4.80;;
11817;SDS011;5966;52.402;5.322;2023-04-01T01:08:20;5.90;;;4.13;;
11817;SDS011;5966;52.402;5.322;2023-04-01T01:10:57;8.87;;;4.30;;
11817;SDS011;5966;52.402;5.322;2023-04-01T01:13:26;8.20;;;4.50;;
11817;SDS011;5966;52.402;5.322;2023-04-01T01:16:06;7.57;;;3.97;;
11817;SDS011;5966;52.402;5.322;2023-04-01T01:19:08;9.00;;;4.70;;
11817;SDS011;5966;52.402;5.322;2023-04-01T01:22:02;13.93;;;5.83;;
11817;SDS011;5966;52.402;5.322;2023-04-01T01:24:57;8.50;;;5.17;;
11817;SDS011;5966;52.402;5.322;2023-04-01T01:27:45;12.80;;;5.40;;
11817;SDS011;5966;52.402;5.322;2023-04-01T01:30:26;12.03;;;4.53;;
11817;SDS011;5966;52.402;5.322;2023-04-01T01:33:13;11.73;;;4.63;;
11817;SDS011;5966;52.402;5.322;2023-04-01T01:36:07;10.40;;;4.23;;
11817;SDS011;5966;52.402;5.322;2023-04-01T01:38:39;8.00;;;3.87;;
11817;SDS011;5966;52.402;5.322;2023-04-01T01:41:08;8.53;;;3.60;;
11817;SDS011;5966;52.402;5.322;2023-04-01T01:43:38;8.07;;;3.77;;
11817;SDS011;5966;52.402;5.322;2023-04-01T01:46:11;8.70;;;3.80;;
11817;SDS011;5966;52.402;5.322;2023-04-01T01:48:50;7.10;;;3.90;;
11817;SDS011;5966;52.402;5.322;2023-04-01T01:51:21;8.93;;;4.47;;
11817;SDS011;5966;52.402;5.322;2023-04-01T01:53:53;10.00;;;4.00;;
11817;SDS011;5966;52.402;5.322;2023-04-01T01:56:22;8.27;;;3.90;;
11817;SDS011;5966;52.402;5.322;2023-04-01T01:59:28;8.70;;;4.00;;
11817;SDS011;5966;52.402;5.322;2023-04-01T02:01:57;7.40;;;3.77;;
11817;SDS011;5966;52.402;5.322;2023-04-01T02:04:26;8.57;;;3.57;;
11817;SDS011;5966;52.402;5.322;2023-04-01T02:06:56;6.87;;;3.40;;
11817;SDS011;5966;52.402;5.322;2023-04-01T02:09:28;8.33;;;3.73;;
11817;SDS011;5966;52.402;5.322;2023-04-01T02:12:04;6.27;;;3.80;;
11817;SDS011;5966;52.402;5.322;2023-04-01T02:14:57;5.60;;;3.10;;
11817;SDS011;5966;52.402;5.322;2023-04-01T02:17:30;5.17;;;3.30;;
11817;SDS011;5966;52.402;5.322;2023-04-01T02:20:01;4.40;;;3.00;;
11817;SDS011;5966;52.402;5.322;2023-04-01T02:22:34;4.83;;;3.30;;
11817;SDS011;5966;52.402;5.322;2023-04-01T02:25:10;5.50;;;3.10;;
11817;SDS011;5966;52.402;5.322;2023-04-01T02:27:40;4.97;;;2.87;;
11817;SDS011;5966;52.402;5.322;2023-04-01T02:30:16;3.70;;;2.63;;
11817;SDS011;5966;52.402;5.322;2023-04-01T02:32:45;4.63;;;2.93;;
11817;SDS011;5966;52.402;5.322;2023-04-01T02:35:15;4.70;;;3.10;;
11817;SDS011;5966;52.402;5.322;2023-04-01T02:37:46;3.60;;;3.13;;
11817;SDS011;5966;52.402;5.322;2023-04-01T02:40:16;5.97;;;3.20;;
11817;SDS011;5966;52.402;5.322;2023-04-01T02:42:45;5.03;;;3.07;;
11817;SDS011;5966;52.402;5.322;2023-04-01T02:45:15;4.03;;;2.80;;
11817;SDS011;5966;52.402;5.322;2023-04-01T02:47:47;6.10;;;3.27;;
11817;SDS011;5966;52.402;5.322;2023-04-01T02:50:15;4.13;;;3.03;;
11817;SDS011;5966;52.402;5.322;2023-04-01T02:52:43;6.73;;;3.20;;
11817;SDS011;5966;52.402;5.322;2023-04-01T02:55:13;4.97;;;2.97;;
11817;SDS011;5966;52.402;5.322;2023-04-01T02:57:41;5.23;;;3.30;;
11817;SDS011;5966;52.402;5.322;2023-04-01T03:00:16;6.47;;;3.27;;
11817;SDS011;5966;52.402;5.322;2023-04-01T03:02:45;5.03;;;2.73;;
11817;SDS011;5966;52.402;5.322;2023-04-01T03:05:13;6.17;;;3.43;;
11817;SDS011;5966;52.402;5.322;2023-04-01T03:07:41;4.90;;;2.77;;
11817;SDS011;5966;52.402;5.322;2023-04-01T03:10:11;4.43;;;2.63;;
11817;SDS011;5966;52.402;5.322;2023-04-01T03:12:39;5.90;;;3.43;;
11817;SDS011;5966;52.402;5.322;2023-04-01T03:15:08;7.77;;;3.53;;
11817;SDS011;5966;52.402;5.322;2023-04-01T03:17:37;4.87;;;3.03;;
11817;SDS011;5966;52.402;5.322;2023-04-01T03:20:06;4.93;;;3.13;;
11817;SDS011;5966;52.402;5.322;2023-04-01T03:22:36;5.23;;;3.27;;
11817;SDS011;5966;52.402;5.322;2023-04-01T03:25:08;6.30;;;3.90;;
11817;SDS011;5966;52.402;5.322;2023-04-01T03:27:38;6.27;;;3.10;;
11817;SDS011;5966;52.402;5.322;2023-04-01T03:30:07;6.87;;;3.40;;
11817;SDS011;5966;52.402;5.322;2023-04-01T03:32:36;5.17;;;3.20;;
11817;SDS011;5966;52.402;5.322;2023-04-01T03:35:04;6.33;;;3.30;;
11817;SDS011;5966;52.402;5.322;2023-04-01T03:37:35;8.30;;;3.30;;
11817;SDS011;5966;52.402;5.322;2023-04-01T03:40:20;6.07;;;3.03;;
11817;SDS011;5966;52.402;5.322;2023-04-01T03:42:48;5.00;;;3.37;;
11817;SDS011;5966;52.402;5.322;2023-04-01T03:45:19;6.37;;;3.13;;
11817;SDS011;5966;52.402;5.322;2023-04-01T03:47:51;5.83;;;3.13;;
11817;SDS011;5966;52.402;5.322;2023-04-01T03:50:23;9.20;;;3.63;;
11817;SDS011;5966;52.402;5.322;2023-04-01T03:52:52;9.43;;;4.40;;
11817;SDS011;5966;52.402;5.322;2023-04-01T03:55:21;5.13;;;3.07;;
11817;SDS011;5966;52.402;5.322;2023-04-01T03:57:49;8.43;;;3.87;;
11817;SDS011;5966;52.402;5.322;2023-04-01T04:00:17;7.00;;;3.23;;
11817;SDS011;5966;52.402;5.322;2023-04-01T04:03:01;5.73;;;3.13;;
11817;SDS011;5966;52.402;5.322;2023-04-01T04:05:30;6.43;;;2.70;;
11817;SDS011;5966;52.402;5.322;2023-04-01T04:07:59;4.03;;;2.63;;
11817;SDS011;5966;52.402;5.322;2023-04-01T04:10:28;6.60;;;3.57;;
11817;SDS011;5966;52.402;5.322;2023-04-01T04:13:01;6.43;;;2.83;;
11817;SDS011;5966;52.402;5.322;2023-04-01T04:15:29;5.27;;;2.83;;
11817;SDS011;5966;52.402;5.322;2023-04-01T04:18:03;3.50;;;3.00;;
11817;SDS011;5966;52.402;5.322;2023-04-01T04:21:11;3.53;;;3.23;;
11817;SDS011;5966;52.402;5.322;2023-04-01T04:23:39;4.27;;;3.87;;
11817;SDS011;5966;52.402;5.322;2023-04-01T04:26:25;4.83;;;4.37;;
11817;SDS011;5966;52.402;5.322;2023-04-01T04:29:17;5.00;;;4.60;;
11817;SDS011;5966;52.402;5.322;2023-04-01T04:31:45;4.93;;;4.53;;
11817;SDS011;5966;52.402;5.322;2023-04-01T04:34:13;4.63;;;4.10;;
11817;SDS011;5966;52.402;5.322;2023-04-01T04:36:41;4.13;;;3.83;;
11817;SDS011;5966;52.402;5.322;2023-04-01T04:39:09;3.97;;;3.57;;
11817;SDS011;5966;52.402;5.322;2023-04-01T04:41:39;4.17;;;3.80;;
11817;SDS011;5966;52.402;5.322;2023-04-01T04:44:07;4.17;;;3.77;;
11817;SDS011;5966;52.402;5.322;2023-04-01T04:46:35;5.90;;;4.20;;
11817;SDS011;5966;52.402;5.322;2023-04-01T04:49:05;4.40;;;4.00;;
11817;SDS011;5966;52.402;5.322;2023-04-01T04:51:34;4.23;;;3.83;;
11817;SDS011;5966;52.402;5.322;2023-04-01T04:54:04;5.70;;;4.20;;
11817;SDS011;5966;52.402;5.322;2023-04-01T04:56:46;5.07;;;4.57;;
11817;SDS011;5966;52.402;5.322;2023-04-01T04:59:14;5.07;;;4.40;;
11817;SDS011;5966;52.402;5.322;2023-04-01T05:01:42;4.73;;;4.20;;
11817;SDS011;5966;52.402;5.322;2023-04-01T05:04:10;5.00;;;4.50;;
11817;SDS011;5966;52.402;5.322;2023-04-01T05:06:45;5.20;;;4.80;;
11817;SDS011;5966;52.402;5.322;2023-04-01T05:09:14;4.87;;;4.47;;
11817;SDS011;5966;52.402;5.322;2023-04-01T05:11:43;5.50;;;5.00;;
11817;SDS011;5966;52.402;5.322;2023-04-01T05:14:12;4.97;;;4.57;;
11817;SDS011;5966;52.402;5.322;2023-04-01T05:16:41;4.80;;;4.40;;
11817;SDS011;5966;52.402;5.322;2023-04-01T05:19:09;5.63;;;5.13;;
11817;SDS011;5966;52.402;5.322;2023-04-01T05:21:37;4.70;;;4.30;;
11817;SDS011;5966;52.402;5.322;2023-04-01T05:24:07;4.70;;;4.30;;
11817;SDS011;5966;52.402;5.322;2023-04-01T05:26:36;5.43;;;4.10;;
11817;SDS011;5966;52.402;5.322;2023-04-01T05:29:09;4.33;;;3.93;;
11817;SDS011;5966;52.402;5.322;2023-04-01T05:31:46;6.27;;;4.63;;
11817;SDS011;5966;52.402;5.322;2023-04-01T05:34:14;4.30;;;4.00;;
11817;SDS011;5966;52.402;5.322;2023-04-01T05:36:42;5.07;;;4.23;;
11817;SDS011;5966;52.402;5.322;2023-04-01T05:39:11;4.47;;;4.07;;
11817;SDS011;5966;52.402;5.322;2023-04-01T05:41:39;3.80;;;3.50;;
11817;SDS011;5966;52.402;5.322;2023-04-01T05:44:10;3.73;;;3.43;;
11817;SDS011;5966;52.402;5.322;2023-04-01T05:46:39;3.60;;;3.30;;
11817;SDS011;5966;52.402;5.322;2023-04-01T05:49:07;2.57;;;2.37;;
11817;SDS011;5966;52.402;5.322;2023-04-01T05:51:35;1.60;;;1.50;;
11817;SDS011;5966;52.402;5.322;2023-04-01T05:54:03;2.17;;;1.60;;
11817;SDS011;5966;52.402;5.322;2023-04-01T05:56:31;1.70;;;1.60;;
11817;SDS011;5966;52.402;5.322;2023-04-01T05:58:59;4.00;;;1.70;;
11817;SDS011;5966;52.402;5.322;2023-04-01T06:01:29;2.03;;;1.93;;
11817;SDS011;5966;52.402;5.322;2023-04-01T06:03:57;3.07;;;1.80;;
11817;SDS011;5966;52.402;5.322;2023-04-01T06:06:25;1.77;;;1.30;;
11817;SDS011;5966;52.402;5.322;2023-04-01T06:08:54;1.30;;;1.20;;
11817;SDS011;5966;52.402;5.322;2023-04-01T06:11:26;1.83;;;1.10;;
11817;SDS011;5966;52.402;5.322;2023-04-01T06:14:11;1.50;;;1.40;;
11817;SDS011;5966;52.402;5.322;2023-04-01T06:16:53;1.77;;;1.67;;
11817;SDS011;5966;52.402;5.322;2023-04-01T06:19:36;2.20;;;2.00;;
11817;SDS011;5966;52.402;5.322;2023-04-01T06:25:15;3.30;;;3.00;;
11817;SDS011;5966;52.402;5.322;2023-04-01T06:28:21;3.77;;;3.47;;
11817;SDS011;5966;52.402;5.322;2023-04-01T06:31:10;3.67;;;3.37;;
11817;SDS011;5966;52.402;5.322;2023-04-01T06:34:05;4.07;;;3.63;;
11817;SDS011;5966;52.402;5.322;2023-04-01T06:37:03;5.03;;;4.53;;
11817;SDS011;5966;52.402;5.322;2023-04-01T06:42:44;5.70;;;5.03;;
11817;SDS011;5966;52.402;5.322;2023-04-01T06:45:28;5.50;;;4.53;;
11817;SDS011;5966;52.402;5.322;2023-04-01T06:48:17;6.03;;;5.43;;
11817;SDS011;5966;52.402;5.322;2023-04-01T06:51:01;7.60;;;6.20;;
11817;SDS011;5966;52.402;5.322;2023-04-01T06:53:39;6.50;;;5.90;;
11817;SDS011;5966;52.402;5.322;2023-04-01T06:56:16;9.00;;;6.50;;
11817;SDS011;5966;52.402;5.322;2023-04-01T06:58:55;8.23;;;6.30;;
11817;SDS011;5966;52.402;5.322;2023-04-01T07:01:32;6.73;;;6.13;;
11817;SDS011;5966;52.402;5.322;2023-04-01T07:04:04;7.27;;;6.53;;
11817;SDS011;5966;52.402;5.322;2023-04-01T07:06:50;7.87;;;6.33;;
11817;SDS011;5966;52.402;5.322;2023-04-01T07:09:21;7.10;;;6.40;;
11817;SDS011;5966;52.402;5.322;2023-04-01T07:11:54;6.27;;;5.63;;
11817;SDS011;5966;52.402;5.322;2023-04-01T07:14:28;6.77;;;6.10;;
11817;SDS011;5966;52.402;5.322;2023-04-01T07:17:03;7.20;;;6.50;;
11817;SDS011;5966;52.402;5.322;2023-04-01T07:19:39;6.57;;;5.93;;
11817;SDS011;5966;52.402;5.322;2023-04-01T07:22:31;6.77;;;6.17;;
11817;SDS011;5966;52.402;5.322;2023-04-01T07:25:16;7.47;;;6.67;;
11817;SDS011;5966;52.402;5.322;2023-04-01T07:27:47;7.10;;;6.50;;
11817;SDS011;5966;52.402;5.322;2023-04-01T07:30:18;7.47;;;6.60;;
11817;SDS011;5966;52.402;5.322;2023-04-01T07:32:50;6.97;;;6.27;;
11817;SDS011;5966;52.402;5.322;2023-04-01T07:35:28;6.87;;;6.17;;
11817;SDS011;5966;52.402;5.322;2023-04-01T07:38:22;7.43;;;6.73;;
11817;SDS011;5966;52.402;5.322;2023-04-01T07:41:01;7.73;;;6.93;;
11817;SDS011;5966;52.402;5.322;2023-04-01T07:43:48;8.03;;;7.23;;
11817;SDS011;5966;52.402;5.322;2023-04-01T07:49:22;7.40;;;6.67;;
11817;SDS011;5966;52.402;5.322;2023-04-01T07:52:12;7.37;;;6.67;;
11817;SDS011;5966;52.402;5.322;2023-04-01T07:54:49;7.40;;;6.70;;
11817;SDS011;5966;52.402;5.322;2023-04-01T07:57:27;7.27;;;6.57;;
11817;SDS011;5966;52.402;5.322;2023-04-01T08:00:24;8.40;;;7.60;;
11817;SDS011;5966;52.402;5.322;2023-04-01T08:02:59;8.57;;;7.30;;
11817;SDS011;5966;52.402;5.322;2023-04-01T08:05:46;10.03;;;7.50;;
11817;SDS011;5966;52.402;5.322;2023-04-01T08:08:25;9.33;;;7.57;;
11817;SDS011;5966;52.402;5.322;2023-04-01T08:13:58;8.47;;;7.57;;
11817;SDS011;5966;52.402;5.322;2023-04-01T08:16:43;9.00;;;7.37;;
11817;SDS011;5966;52.402;5.322;2023-04-01T08:19:21;8.30;;;7.50;;
11817;SDS011;5966;52.402;5.322;2023-04-01T08:22:01;8.33;;;7.53;;
11817;SDS011;5966;52.402;5.322;2023-04-01T08:24:36;11.10;;;8.83;;
11817;SDS011;5966;52.402;5.322;2023-04-01T08:27:18;9.60;;;8.60;;
11817;SDS011;5966;52.402;5.322;2023-04-01T08:29:53;9.50;;;8.50;;
11817;SDS011;5966;52.402;5.322;2023-04-01T08:32:26;8.67;;;7.87;;
11817;SDS011;5966;52.402;5.322;2023-04-01T08:35:09;10.00;;;8.80;;
11817;SDS011;5966;52.402;5.322;2023-04-01T08:37:45;8.73;;;7.93;;
11817;SDS011;5966;52.402;5.322;2023-04-01T08:40:32;9.30;;;8.37;;
11817;SDS011;5966;52.402;5.322;2023-04-01T08:43:10;10.67;;;8.93;;
11817;SDS011;5966;52.402;5.322;2023-04-01T08:48:48;10.13;;;8.40;;
11817;SDS011;5966;52.402;5.322;2023-04-01T08:51:44;8.77;;;7.87;;
11817;SDS011;5966;52.402;5.322;2023-04-01T08:54:37;9.53;;;8.60;;
11817;SDS011;5966;52.402;5.322;2023-04-01T08:57:15;9.53;;;8.47;;
11817;SDS011;5966;52.402;5.322;2023-04-01T08:59:59;9.77;;;8.57;;
11817;SDS011;5966;52.402;5.322;2023-04-01T09:02:49;11.00;;;9.23;;
11817;SDS011;5966;52.402;5.322;2023-04-01T09:05:36;11.00;;;8.80;;
11817;SDS011;5966;52.402;5.322;2023-04-01T09:08:28;10.23;;;9.20;;
11817;SDS011;5966;52.402;5.322;2023-04-01T09:11:16;11.70;;;9.77;;
11817;SDS011;5966;52.402;5.322;2023-04-01T09:14:16;11.13;;;8.80;;
11817;SDS011;5966;52.402;5.322;2023-04-01T09:20:00;12.53;;;8.80;;
11817;SDS011;5966;52.402;5.322;2023-04-01T09:22:46;10.53;;;8.77;;
11817;SDS011;5966;52.402;5.322;2023-04-01T09:25:29;10.30;;;9.17;;
11817;SDS011;5966;52.402;5.322;2023-04-01T09:28:08;9.97;;;8.97;;
11817;SDS011;5966;52.402;5.322;2023-04-01T09:30:52;9.63;;;8.60;;
11817;SDS011;5966;52.402;5.322;2023-04-01T09:33:46;11.10;;;8.17;;
11817;SDS011;5966;52.402;5.322;2023-04-01T09:36:43;9.67;;;8.33;;
11817;SDS011;5966;52.402;5.322;2023-04-01T09:39:18;9.50;;;8.50;;
11817;SDS011;5966;52.402;5.322;2023-04-01T09:42:15;9.20;;;8.30;;
11817;SDS011;5966;52.402;5.322;2023-04-01T09:45:09;9.40;;;8.37;;
11817;SDS011;5966;52.402;5.322;2023-04-01T09:47:56;8.73;;;7.83;;
11817;SDS011;5966;52.402;5.322;2023-04-01T09:50:33;9.27;;;7.90;;
11817;SDS011;5966;52.402;5.322;2023-04-01T09:53:28;7.63;;;6.67;;
11817;SDS011;5966;52.402;5.322;2023-04-01T09:56:27;7.53;;;6.50;;
11817;SDS011;5966;52.402;5.322;2023-04-01T10:02:38;5.17;;;4.70;;
11817;SDS011;5966;52.402;5.322;2023-04-01T10:05:38;4.33;;;3.87;;
11817;SDS011;5966;52.402;5.322;2023-04-01T10:24:41;6.33;;;4.40;;
11817;SDS011;5966;52.402;5.322;2023-04-01T10:27:40;4.97;;;4.47;;
11817;SDS011;5966;52.402;5.322;2023-04-01T10:33:56;5.83;;;5.23;;
11817;SDS011;5966;52.402;5.322;2023-04-01T10:36:59;7.17;;;5.60;;
11817;SDS011;5966;52.402;5.322;2023-04-01T10:43:07;6.27;;;5.67;;
11817;SDS011;5966;52.402;5.322;2023-04-01T10:46:19;5.67;;;5.13;;
11817;SDS011;5966;52.402;5.322;2023-04-01T10:52:48;6.27;;;5.67;;
11817;SDS011;5966;52.402;5.322;2023-04-01T10:55:46;5.93;;;5.37;;
11817;SDS011;5966;52.402;5.322;2023-04-01T10:58:54;6.70;;;6.00;;
11817;SDS011;5966;52.402;5.322;2023-04-01T11:01:52;7.70;;;6.90;;
11817;SDS011;5966;52.402;5.322;2023-04-01T11:08:32;8.37;;;7.57;;
11817;SDS011;5966;52.402;5.322;2023-04-01T11:24:35;12.83;;;10.17;;
11817;SDS011;5966;52.402;5.322;2023-04-01T11:27:41;11.87;;;10.50;;
11817;SDS011;5966;52.402;5.322;2023-04-01T11:30:25;12.20;;;10.17;;
11817;SDS011;5966;52.402;5.322;2023-04-01T11:33:03;12.40;;;10.23;;
11817;SDS011;5966;52.402;5.322;2023-04-01T11:39:01;12.50;;;9.67;;
11817;SDS011;5966;52.402;5.322;2023-04-01T11:41:49;11.30;;;9.97;;
11817;SDS011;5966;52.402;5.322;2023-04-01T11:44:22;14.20;;;10.33;;
11817;SDS011;5966;52.402;5.322;2023-04-01T11:47:21;12.33;;;10.27;;
11817;SDS011;5966;52.402;5.322;2023-04-01T11:50:17;11.83;;;8.97;;
11817;SDS011;5966;52.402;5.322;2023-04-01T11:53:06;10.03;;;9.00;;
11817;SDS011;5966;52.402;5.322;2023-04-01T11:56:06;11.67;;;9.40;;
11817;SDS011;5966;52.402;5.322;2023-04-01T11:58:52;9.70;;;8.60;;
11817;SDS011;5966;52.402;5.322;2023-04-01T12:01:32;9.30;;;8.40;;
11817;SDS011;5966;52.402;5.322;2023-04-01T12:07:44;7.67;;;6.87;;
11817;SDS011;5966;52.402;5.322;2023-04-01T12:10:32;7.27;;;6.53;;
11817;SDS011;5966;52.402;5.322;2023-04-01T12:13:12;7.07;;;6.40;;
11817;SDS011;5966;52.402;5.322;2023-04-01T12:15:54;7.27;;;6.57;;
11817;SDS011;5966;52.402;5.322;2023-04-01T12:18:57;6.53;;;5.93;;
11817;SDS011;5966;52.402;5.322;2023-04-01T12:21:32;7.43;;;6.30;;
11817;SDS011;5966;52.402;5.322;2023-04-01T12:24:29;7.63;;;6.93;;
11817;SDS011;5966;52.402;5.322;2023-04-01T12:27:23;9.97;;;7.40;;
11817;SDS011;5966;52.402;5.322;2023-04-01T12:30:14;8.53;;;6.87;;
11817;SDS011;5966;52.402;5.322;2023-04-01T12:33:20;9.10;;;7.00;;
11817;SDS011;5966;52.402;5.322;2023-04-01T12:36:07;7.03;;;6.33;;
11817;SDS011;5966;52.402;5.322;2023-04-01T12:38:44;6.90;;;6.30;;
11817;SDS011;5966;52.402;5.322;2023-04-01T12:41:29;7.77;;;5.97;;
11817;SDS011;5966;52.402;5.322;2023-04-01T12:44:16;6.37;;;5.77;;
11817;SDS011;5966;52.402;5.322;2023-04-01T12:52:50;4.90;;;4.50;;
11817;SDS011;5966;52.402;5.322;2023-04-01T12:55:43;6.10;;;5.03;;
11817;SDS011;5966;52.402;5.322;2023-04-01T12:58:30;5.40;;;4.83;;
11817;SDS011;5966;52.402;5.322;2023-04-01T13:01:27;5.67;;;4.43;;
11817;SDS011;5966;52.402;5.322;2023-04-01T13:04:11;4.87;;;4.37;;
11817;SDS011;5966;52.402;5.322;2023-04-01T13:07:15;5.20;;;4.70;;
11817;SDS011;5966;52.402;5.322;2023-04-01T13:10:01;5.23;;;4.70;;
11817;SDS011;5966;52.402;5.322;2023-04-01T13:16:22;5.50;;;5.00;;
11817;SDS011;5966;52.402;5.322;2023-04-01T13:19:03;5.67;;;4.97;;
11817;SDS011;5966;52.402;5.322;2023-04-01T13:21:40;5.37;;;4.83;;
11817;SDS011;5966;52.402;5.322;2023-04-01T13:24:24;4.97;;;4.47;;
11817;SDS011;5966;52.402;5.322;2023-04-01T13:27:06;5.03;;;4.63;;
11817;SDS011;5966;52.402;5.322;2023-04-01T13:29:41;4.37;;;3.90;;
11817;SDS011;5966;52.402;5.322;2023-04-01T13:32:22;5.40;;;4.40;;
11817;SDS011;5966;52.402;5.322;2023-04-01T13:35:18;4.17;;;3.83;;
11817;SDS011;5966;52.402;5.322;2023-04-01T13:40:51;6.47;;;4.77;;
11817;SDS011;5966;52.402;5.322;2023-04-01T13:43:30;7.33;;;5.17;;
11817;SDS011;5966;52.402;5.322;2023-04-01T13:46:09;5.97;;;5.47;;
11817;SDS011;5966;52.402;5.322;2023-04-01T13:48:56;5.37;;;4.93;;
11817;SDS011;5966;52.402;5.322;2023-04-01T13:52:01;4.67;;;4.17;;
11817;SDS011;5966;52.402;5.322;2023-04-01T13:58:00;4.33;;;3.93;;
11817;SDS011;5966;52.402;5.322;2023-04-01T14:00:43;5.13;;;4.70;;
11817;SDS011;5966;52.402;5.322;2023-04-01T14:03:28;5.00;;;4.37;;
11817;SDS011;5966;52.402;5.322;2023-04-01T14:09:03;4.97;;;4.13;;
11817;SDS011;5966;52.402;5.322;2023-04-01T14:12:04;6.07;;;5.57;;
11817;SDS011;5966;52.402;5.322;2023-04-01T14:14:42;5.23;;;4.83;;
11817;SDS011;5966;52.402;5.322;2023-04-01T14:17:31;5.47;;;4.97;;
11817;SDS011;5966;52.402;5.322;2023-04-01T14:20:29;5.00;;;4.50;;
11817;SDS011;5966;52.402;5.322;2023-04-01T14:29:42;6.07;;;4.60;;
11817;SDS011;5966;52.402;5.322;2023-04-01T14:32:39;5.30;;;4.60;;
11817;SDS011;5966;52.402;5.322;2023-04-01T14:35:24;5.20;;;4.70;;
11817;SDS011;5966;52.402;5.322;2023-04-01T14:41:16;4.67;;;3.90;;
11817;SDS011;5966;52.402;5.322;2023-04-01T14:43:59;5.00;;;4.50;;
11817;SDS011;5966;52.402;5.322;2023-04-01T14:50:15;5.40;;;4.30;;
11817;SDS011;5966;52.402;5.322;2023-04-01T14:52:55;5.20;;;4.73;;
11817;SDS011;5966;52.402;5.322;2023-04-01T14:55:29;6.87;;;5.00;;
11817;SDS011;5966;52.402;5.322;2023-04-01T14:58:16;5.30;;;4.80;;
11817;SDS011;5966;52.402;5.322;2023-04-01T15:00:52;4.63;;;4.23;;
11817;SDS011;5966;52.402;5.322;2023-04-01T15:03:48;4.93;;;4.47;;
11817;SDS011;5966;52.402;5.322;2023-04-01T15:06:39;6.13;;;4.23;;
11817;SDS011;5966;52.402;5.322;2023-04-01T15:09:26;3.67;;;3.37;;
11817;SDS011;5966;52.402;5.322;2023-04-01T15:12:05;6.17;;;5.10;;
11817;SDS011;5966;52.402;5.322;2023-04-01T15:17:47;4.90;;;3.63;;
11817;SDS011;5966;52.402;5.322;2023-04-01T15:20:28;4.60;;;4.30;;
11817;SDS011;5966;52.402;5.322;2023-04-01T15:23:12;3.97;;;3.57;;
11817;SDS011;5966;52.402;5.322;2023-04-01T15:25:51;4.37;;;3.83;;
11817;SDS011;5966;52.402;5.322;2023-04-01T15:32:21;3.57;;;3.27;;
11817;SDS011;5966;52.402;5.322;2023-04-01T15:35:14;3.13;;;2.93;;
11817;SDS011;5966;52.402;5.322;2023-04-01T15:37:59;3.20;;;3.00;;
11817;SDS011;5966;52.402;5.322;2023-04-01T15:40:53;3.60;;;3.30;;
11817;SDS011;5966;52.402;5.322;2023-04-01T15:43:31;5.10;;;3.17;;
11817;SDS011;5966;52.402;5.322;2023-04-01T15:49:12;4.20;;;3.80;;
11817;SDS011;5966;52.402;5.322;2023-04-01T15:51:58;2.70;;;2.50;;
11817;SDS011;5966;52.402;5.322;2023-04-01T15:54:59;2.27;;;2.17;;
11817;SDS011;5966;52.402;5.322;2023-04-01T15:57:40;2.20;;;2.10;;
11817;SDS011;5966;52.402;5.322;2023-04-01T16:00:22;2.17;;;2.07;;
11817;SDS011;5966;52.402;5.322;2023-04-01T16:03:09;2.50;;;2.30;;
11817;SDS011;5966;52.402;5.322;2023-04-01T16:05:53;1.97;;;1.87;;
11817;SDS011;5966;52.402;5.322;2023-04-01T16:08:47;2.00;;;1.90;;
11817;SDS011;5966;52.402;5.322;2023-04-01T16:11:36;2.30;;;2.10;;
11817;SDS011;5966;52.402;5.322;2023-04-01T16:14:17;2.20;;;2.07;;
11817;SDS011;5966;52.402;5.322;2023-04-01T16:17:09;2.00;;;1.90;;
11817;SDS011;5966;52.402;5.322;2023-04-01T16:19:55;2.77;;;2.17;;
11817;SDS011;5966;52.402;5.322;2023-04-01T16:22:31;2.30;;;2.13;;
11817;SDS011;5966;52.402;5.322;2023-04-01T16:25:19;1.60;;;1.50;;
11817;SDS011;5966;52.402;5.322;2023-04-01T16:27:58;2.27;;;1.63;;
11817;SDS011;5966;52.402;5.322;2023-04-01T16:30:48;1.93;;;1.83;;
11817;SDS011;5966;52.402;5.322;2023-04-01T16:33:24;1.70;;;1.60;;
11817;SDS011;5966;52.402;5.322;2023-04-01T16:36:24;1.23;;;1.13;;
11817;SDS011;5966;52.402;5.322;2023-04-01T16:39:08;1.50;;;1.40;;
11817;SDS011;5966;52.402;5.322;2023-04-01T16:41:57;1.30;;;1.30;;
11817;SDS011;5966;52.402;5.322;2023-04-01T16:44:59;2.03;;;1.90;;
11817;SDS011;5966;52.402;5.322;2023-04-01T16:47:47;1.70;;;1.60;;
11817;SDS011;5966;52.402;5.322;2023-04-01T16:50:19;1.57;;;1.47;;
11817;SDS011;5966;52.402;5.322;2023-04-01T16:52:57;1.33;;;1.27;;
11817;SDS011;5966;52.402;5.322;2023-04-01T16:55:35;3.77;;;1.67;;
11817;SDS011;5966;52.402;5.322;2023-04-01T16:58:32;1.50;;;1.40;;
11817;SDS011;5966;52.402;5.322;2023-04-01T17:01:11;1.60;;;1.50;;
11817;SDS011;5966;52.402;5.322;2023-04-01T17:03:45;1.70;;;1.60;;
11817;SDS011;5966;52.402;5.322;2023-04-01T17:06:35;1.23;;;1.23;;
11817;SDS011;5966;52.402;5.322;2023-04-01T17:09:26;1.17;;;1.17;;
11817;SDS011;5966;52.402;5.322;2023-04-01T17:12:13;1.10;;;1.10;;
11817;SDS011;5966;52.402;5.322;2023-04-01T17:14:54;1.57;;;1.47;;
11817;SDS011;5966;52.402;5.322;2023-04-01T17:17:32;1.53;;;1.43;;
11817;SDS011;5966;52.402;5.322;2023-04-01T17:20:19;1.50;;;1.40;;
11817;SDS011;5966;52.402;5.322;2023-04-01T17:23:12;1.60;;;1.50;;
11817;SDS011;5966;52.402;5.322;2023-04-01T17:25:48;1.70;;;1.60;;
11817;SDS011;5966;52.402;5.322;2023-04-01T17:28:34;1.40;;;1.30;;
11817;SDS011;5966;52.402;5.322;2023-04-01T17:31:14;1.50;;;1.40;;
11817;SDS011;5966;52.402;5.322;2023-04-01T17:34:15;1.10;;;1.10;;
11817;SDS011;5966;52.402;5.322;2023-04-01T17:37:05;2.00;;;1.33;;
11817;SDS011;5966;52.402;5.322;2023-04-01T17:39:54;1.43;;;1.33;;
11817;SDS011;5966;52.402;5.322;2023-04-01T17:42:34;1.37;;;1.33;;
11817;SDS011;5966;52.402;5.322;2023-04-01T17:45:10;1.63;;;1.53;;
11817;SDS011;5966;52.402;5.322;2023-04-01T17:47:52;1.63;;;1.53;;
11817;SDS011;5966;52.402;5.322;2023-04-01T17:50:51;2.23;;;2.03;;
11817;SDS011;5966;52.402;5.322;2023-04-01T17:53:43;1.60;;;1.50;;
11817;SDS011;5966;52.402;5.322;2023-04-01T17:56:22;1.63;;;1.53;;
11817;SDS011;5966;52.402;5.322;2023-04-01T17:58:59;6.40;;;4.13;;
11817;SDS011;5966;52.402;5.322;2023-04-01T18:01:40;1.97;;;1.87;;
11817;SDS011;5966;52.402;5.322;2023-04-01T18:07:40;4.20;;;2.77;;
11817;SDS011;5966;52.402;5.322;2023-04-01T18:10:22;2.10;;;2.00;;
11817;SDS011;5966;52.402;5.322;2023-04-01T18:15:56;3.13;;;2.93;;
11817;SDS011;5966;52.402;5.322;2023-04-01T18:18:36;2.97;;;2.77;;
11817;SDS011;5966;52.402;5.322;2023-04-01T18:21:19;2.80;;;2.60;;